Belleville, New Jersey
Current Conditions -  °F | °C
As of 8:51 AM on Thursday 27 Nov 2014 (Local Time) from KTEB Reporting Station
Overcast Overcast  
Wind Chill: 31°   Ceiling: 5500
Heat Index: 36°   Visibility: 10mi
Dew Point: 29°   Wind: 6mph
Humidity: 76%   Direction: 360°N
Pressure: 29.99"   Gusts: NA
Location:  40.79°N, 74.15°W
Report Text: KTEB 271351Z 36005KT 10SM OVC055 02/M02 A2999 RMK AO2 SNE1254B23E47 SLP155 P0000 T00221017 $
Loading
Personal Weather Stations






























Interactive Weather Map New forecast layout! Learn more

10-Day Weather Forecast

Advertisements
Track Severe Weather on mobile